createdAt,value
2019-03-21T00:00:19.847Z,54.79
2019-03-21T00:02:45.629Z,55.38
2019-03-21T00:05:11.721Z,55.10
2019-03-21T00:07:37.490Z,55.86
2019-03-21T00:10:15.773Z,56.73
2019-03-21T00:12:41.653Z,55.95
2019-03-21T00:15:14.004Z,56.53
2019-03-21T00:17:42.796Z,57.02
2019-03-21T00:20:14.572Z,56.27
2019-03-21T00:22:40.434Z,56.99
2019-03-21T00:25:09.940Z,56.93
2019-03-21T00:27:35.965Z,56.23
2019-03-21T00:30:05.795Z,56.73
2019-03-21T00:32:31.984Z,57.30
2019-03-21T00:34:58.325Z,56.39
2019-03-21T00:37:24.258Z,55.90
2019-03-21T00:39:50.211Z,56.14
2019-03-21T00:42:16.385Z,55.72
2019-03-21T00:44:42.411Z,56.41
2019-03-21T00:47:08.453Z,57.05
2019-03-21T00:49:34.279Z,57.36
2019-03-21T00:52:00.302Z,57.31
2019-03-21T00:54:26.121Z,57.18
2019-03-21T00:56:52.019Z,57.23
2019-03-21T00:59:18.733Z,57.20
2019-03-21T01:01:44.811Z,57.62
2019-03-21T01:04:10.629Z,57.04
2019-03-21T01:06:36.645Z,56.72
2019-03-21T01:09:06.511Z,56.47
2019-03-21T01:11:32.303Z,57.59
2019-03-21T01:13:58.406Z,58.86
2019-03-21T01:16:24.229Z,57.97
2019-03-21T01:18:50.355Z,57.62
2019-03-21T01:21:16.405Z,57.96
2019-03-21T01:23:42.681Z,57.76
2019-03-21T01:26:13.242Z,58.27
2019-03-21T01:28:39.368Z,58.69
2019-03-21T01:31:05.379Z,59.03
2019-03-21T01:33:31.439Z,59.24
2019-03-21T01:35:57.277Z,59.33
2019-03-21T01:38:23.349Z,58.48
2019-03-21T01:40:52.419Z,58.59
2019-03-21T01:43:19.209Z,59.52
2019-03-21T01:45:45.186Z,58.43
2019-03-21T01:48:11.338Z,58.66
2019-03-21T01:50:38.766Z,58.91
2019-03-21T01:53:04.689Z,58.56
2019-03-21T01:55:30.784Z,58.53
2019-03-21T01:57:56.571Z,59.20
2019-03-21T02:00:25.999Z,58.73
2019-03-21T02:02:54.472Z,58.70
2019-03-21T02:05:20.310Z,58.68
2019-03-21T02:07:46.289Z,59.42
2019-03-21T02:10:15.374Z,58.91
2019-03-21T02:12:41.194Z,58.54
2019-03-21T02:15:10.915Z,58.06
2019-03-21T02:17:36.910Z,59.30
2019-03-21T02:20:06.641Z,60.01
2019-03-21T02:22:32.817Z,59.13
2019-03-21T02:24:58.832Z,59.09
2019-03-21T02:27:24.944Z,59.18
2019-03-21T02:29:50.715Z,59.55
2019-03-21T02:32:16.751Z,59.70
2019-03-21T02:34:42.642Z,60.80
2019-03-21T02:37:08.683Z,59.80
2019-03-21T02:39:34.914Z,60.02
2019-03-21T02:42:00.949Z,59.21
2019-03-21T02:44:26.986Z,59.14
2019-03-21T02:46:52.871Z,59.30
2019-03-21T02:49:18.925Z,59.18
2019-03-21T02:51:45.154Z,59.87
2019-03-21T02:54:11.119Z,59.34
2019-03-21T02:56:37.073Z,59.18
2019-03-21T02:59:03.439Z,59.36
2019-03-21T03:01:29.837Z,58.72
2019-03-21T03:03:55.918Z,58.20
2019-03-21T03:06:22.154Z,58.40
2019-03-21T03:08:48.121Z,58.54
2019-03-21T03:11:17.963Z,58.75
2019-03-21T03:13:46.937Z,58.46
2019-03-21T03:16:12.756Z,58.59
2019-03-21T03:18:39.544Z,57.92
2019-03-21T03:21:05.337Z,58.40
2019-03-21T03:23:31.323Z,58.28
2019-03-21T03:25:57.668Z,58.05
2019-03-21T03:28:30.295Z,58.02
2019-03-21T03:30:57.301Z,58.32
2019-03-21T03:33:23.612Z,59.40
2019-03-21T03:35:49.808Z,58.63
2019-03-21T03:38:15.813Z,57.77
2019-03-21T03:40:47.497Z,59.07
2019-03-21T03:43:13.765Z,59.30
2019-03-21T03:45:43.551Z,58.45
2019-03-21T03:48:09.642Z,58.68
2019-03-21T03:50:35.604Z,58.71
2019-03-21T03:53:02.325Z,58.99
2019-03-21T03:55:28.575Z,59.39
2019-03-21T03:58:00.819Z,60.96
2019-03-21T04:00:26.966Z,60.48
2019-03-21T04:02:54.707Z,59.89
2019-03-21T04:05:21.059Z,59.77
2019-03-21T04:07:48.065Z,59.77
2019-03-21T04:10:23.013Z,59.91
2019-03-21T04:12:49.259Z,59.74
2019-03-21T04:15:15.437Z,60.44
2019-03-21T04:17:41.436Z,61.02
2019-03-21T04:20:11.198Z,61.11
2019-03-21T04:22:37.183Z,60.68
2019-03-21T04:25:07.033Z,61.23
2019-03-21T04:27:34.063Z,61.30
2019-03-21T04:30:00.422Z,61.20
2019-03-21T04:32:26.695Z,61.32
2019-03-21T04:34:52.568Z,60.82
2019-03-21T04:37:18.675Z,61.35
2019-03-21T04:39:44.745Z,60.56
2019-03-21T04:42:10.618Z,60.51
2019-03-21T04:44:36.590Z,61.52
2019-03-21T04:47:02.918Z,61.87
2019-03-21T04:49:28.836Z,61.36
2019-03-21T04:51:55.124Z,61.60
2019-03-21T04:54:21.123Z,61.79
2019-03-21T04:56:47.062Z,61.81
2019-03-21T04:59:13.101Z,61.67
2019-03-21T05:01:39.133Z,62.15
2019-03-21T05:04:05.459Z,62.08
2019-03-21T05:06:32.915Z,62.92
2019-03-21T05:08:59.134Z,63.12
2019-03-21T05:11:25.000Z,62.32
2019-03-21T05:13:50.791Z,63.13
2019-03-21T05:16:16.792Z,61.94
2019-03-21T05:18:49.578Z,62.28
2019-03-21T05:21:20.798Z,61.80
2019-03-21T05:23:46.795Z,62.23
2019-03-21T05:26:13.189Z,61.80
2019-03-21T05:28:39.190Z,61.27
2019-03-21T05:31:08.913Z,61.20
2019-03-21T05:33:35.044Z,60.61
2019-03-21T05:36:01.068Z,60.84
2019-03-21T05:38:29.979Z,60.77
2019-03-21T05:40:56.076Z,61.00
2019-03-21T05:43:25.782Z,60.96
2019-03-21T05:45:51.814Z,60.66
2019-03-21T05:48:18.021Z,60.48
2019-03-21T05:50:47.204Z,60.92
2019-03-21T05:53:13.449Z,60.73
2019-03-21T05:55:39.814Z,61.00
2019-03-21T05:58:05.890Z,61.19
2019-03-21T06:00:36.910Z,61.51
2019-03-21T06:03:05.024Z,61.21
2019-03-21T06:05:30.887Z,60.58
2019-03-21T06:08:16.007Z,60.60
2019-03-21T06:10:42.352Z,59.97
2019-03-21T06:13:08.283Z,60.27
2019-03-21T06:15:39.389Z,60.65
2019-03-21T06:18:12.181Z,60.54
2019-03-21T06:20:56.519Z,60.23
2019-03-21T06:23:26.287Z,58.74
2019-03-21T06:26:04.909Z,59.96
2019-03-21T06:28:30.923Z,59.45
2019-03-21T06:30:57.007Z,60.23
2019-03-21T06:33:23.160Z,60.25
2019-03-21T06:35:49.238Z,59.65
2019-03-21T06:38:15.410Z,59.36
2019-03-21T06:40:41.528Z,59.75
2019-03-21T06:43:07.352Z,59.80
2019-03-21T06:45:33.154Z,60.55
2019-03-21T06:47:58.991Z,59.62
2019-03-21T06:50:25.023Z,59.85
2019-03-21T06:52:51.097Z,59.42
2019-03-21T06:55:17.249Z,58.95
2019-03-21T06:57:43.245Z,58.95
2019-03-21T07:00:10.335Z,59.29
2019-03-21T07:02:36.269Z,58.75
2019-03-21T07:05:05.015Z,57.83
2019-03-21T07:07:30.861Z,58.09
2019-03-21T07:09:56.806Z,57.98
2019-03-21T07:12:23.129Z,58.01
2019-03-21T07:14:49.430Z,57.59
2019-03-21T07:17:15.457Z,57.33
2019-03-21T07:19:41.519Z,57.45
2019-03-21T07:22:07.594Z,57.00
2019-03-21T07:24:33.461Z,56.41
2019-03-21T07:26:59.568Z,56.07
2019-03-21T07:29:25.676Z,55.91
2019-03-21T07:31:51.481Z,55.94
2019-03-21T07:34:17.324Z,56.08
2019-03-21T07:36:43.355Z,56.01
2019-03-21T07:39:09.421Z,56.59
2019-03-21T07:41:35.656Z,56.23
2019-03-21T07:44:01.643Z,56.23
2019-03-21T07:46:27.570Z,54.22
2019-03-21T07:48:53.797Z,54.93
2019-03-21T07:51:20.101Z,55.04
2019-03-21T07:53:46.057Z,55.23
2019-03-21T07:56:12.325Z,54.88
2019-03-21T07:58:38.293Z,54.48
2019-03-21T08:01:04.836Z,54.34
2019-03-21T08:03:30.819Z,53.78
2019-03-21T08:05:56.604Z,52.96
2019-03-21T08:08:22.716Z,52.26
2019-03-21T08:10:48.721Z,51.69
2019-03-21T08:13:14.920Z,51.91
2019-03-21T08:15:41.019Z,50.46
2019-03-21T08:18:07.309Z,50.10
2019-03-21T08:20:33.353Z,48.81
2019-03-21T08:22:59.407Z,47.34
2019-03-21T08:25:25.509Z,46.08
2019-03-21T08:27:51.892Z,45.22
2019-03-21T08:30:27.333Z,43.69
2019-03-21T08:32:53.357Z,42.22
2019-03-21T08:35:19.427Z,40.51
2019-03-21T08:37:45.417Z,39.48
2019-03-21T08:40:13.170Z,38.26
2019-03-21T08:42:39.579Z,35.55
2019-03-21T08:45:06.084Z,35.06
2019-03-21T08:47:32.425Z,33.78
2019-03-21T08:49:58.426Z,32.59
2019-03-21T08:52:24.387Z,31.28
2019-03-21T08:54:50.199Z,29.60
2019-03-21T08:57:15.982Z,28.05
2019-03-21T08:59:42.155Z,28.89
2019-03-21T09:02:08.129Z,26.17
2019-03-21T09:04:34.075Z,25.39
2019-03-21T09:07:00.054Z,22.54
2019-03-21T09:09:26.324Z,17.90
2019-03-21T09:11:52.353Z,14.30
2019-03-21T09:14:18.425Z,12.33
2019-03-21T09:16:44.587Z,11.23
2019-03-21T09:19:10.612Z,11.16
2019-03-21T09:21:36.866Z,10.54
2019-03-21T09:24:03.297Z,9.92
2019-03-21T09:26:29.205Z,10.30
2019-03-21T09:28:55.156Z,13.00
2019-03-21T09:31:21.480Z,13.00
2019-03-21T09:33:47.829Z,12.51
2019-03-21T09:36:13.890Z,13.54
2019-03-21T09:38:39.754Z,14.14
2019-03-21T09:41:05.891Z,11.33
2019-03-21T09:43:31.933Z,11.03
2019-03-21T09:45:57.845Z,11.15
2019-03-21T09:48:23.903Z,11.97
2019-03-21T09:50:49.957Z,11.26
2019-03-21T09:53:15.839Z,13.63
2019-03-21T09:55:41.702Z,12.75
2019-03-21T09:58:07.737Z,15.45
2019-03-21T10:00:37.155Z,13.85
2019-03-21T10:03:04.489Z,12.81
2019-03-21T10:05:30.600Z,8.75
2019-03-21T10:07:59.426Z,8.75
2019-03-21T10:10:29.973Z,9.04
2019-03-21T10:12:55.938Z,10.51
2019-03-21T10:15:21.761Z,12.31
2019-03-21T10:17:47.811Z,11.70
2019-03-21T10:20:13.949Z,13.11
2019-03-21T10:22:40.171Z,13.66
2019-03-21T10:25:06.191Z,15.01
2019-03-21T10:27:32.406Z,12.25
2019-03-21T10:29:58.399Z,9.68
2019-03-21T10:32:24.544Z,8.61
2019-03-21T10:34:50.662Z,11.40
2019-03-21T10:37:16.575Z,9.31
2019-03-21T10:39:42.615Z,13.04
2019-03-21T10:42:09.130Z,10.20
2019-03-21T10:44:35.169Z,9.67
2019-03-21T10:47:00.959Z,9.03
2019-03-21T10:49:26.894Z,12.08
2019-03-21T10:51:55.240Z,11.10
2019-03-21T10:54:20.799Z,9.03
2019-03-21T10:56:46.839Z,9.52
2019-03-21T10:59:12.680Z,9.38
2019-03-21T11:01:38.491Z,6.74
2019-03-21T11:04:04.568Z,6.43
2019-03-21T11:06:30.570Z,7.19
2019-03-21T11:08:56.496Z,7.56
2019-03-21T11:11:22.299Z,11.89
2019-03-21T11:13:48.476Z,11.38
2019-03-21T11:16:14.638Z,10.10
2019-03-21T11:18:40.897Z,12.34
2019-03-21T11:21:06.859Z,8.42
2019-03-21T11:23:32.880Z,5.45
2019-03-21T11:25:58.893Z,6.55
2019-03-21T11:28:24.662Z,7.37
2019-03-21T11:30:50.743Z,9.61
2019-03-21T11:33:16.853Z,7.83
2019-03-21T11:35:42.984Z,5.77
2019-03-21T11:38:09.045Z,6.79
2019-03-21T11:40:35.338Z,8.36
2019-03-21T11:43:02.854Z,5.25
2019-03-21T11:45:29.203Z,8.99
2019-03-21T11:47:55.496Z,6.75
2019-03-21T11:50:21.705Z,7.01
2019-03-21T11:52:47.829Z,9.41
2019-03-21T11:55:14.237Z,8.10
2019-03-21T11:57:40.543Z,10.44
2019-03-21T12:00:08.913Z,11.88
2019-03-21T12:02:35.240Z,15.31
2019-03-21T12:05:01.641Z,13.90
2019-03-21T12:07:27.557Z,12.82
2019-03-21T12:09:53.684Z,13.36
2019-03-21T12:12:19.771Z,15.40
2019-03-21T12:14:46.193Z,15.54
2019-03-21T12:17:12.973Z,14.04
2019-03-21T12:19:39.128Z,15.40
2019-03-21T12:22:05.233Z,12.21
2019-03-21T12:24:31.424Z,12.49
2019-03-21T12:26:57.488Z,14.92
2019-03-21T12:29:23.490Z,10.81
2019-03-21T12:31:49.367Z,10.04
2019-03-21T12:34:15.557Z,9.46
2019-03-21T12:36:41.636Z,15.34
2019-03-21T12:39:07.972Z,17.10
2019-03-21T12:41:34.315Z,17.38
2019-03-21T12:44:00.516Z,11.98
2019-03-21T12:46:26.547Z,11.61
2019-03-21T12:48:52.635Z,10.37
2019-03-21T12:51:18.839Z,11.66
2019-03-21T12:53:45.109Z,13.26
2019-03-21T12:56:11.543Z,12.34
2019-03-21T12:58:37.696Z,12.19
2019-03-21T13:01:04.042Z,11.62
2019-03-21T13:03:30.455Z,11.05
2019-03-21T13:05:56.622Z,9.31
2019-03-21T13:08:33.302Z,9.98
2019-03-21T13:10:50.488Z,12.74
2019-03-21T13:13:16.538Z,12.43
2019-03-21T13:15:42.490Z,21.80
2019-03-21T13:18:08.616Z,21.80
2019-03-21T13:20:34.810Z,21.94
2019-03-21T13:23:00.884Z,22.10
2019-03-21T13:25:27.240Z,21.48
2019-03-21T13:27:53.455Z,21.60
2019-03-21T13:30:19.928Z,21.49
2019-03-21T13:32:47.078Z,22.20
2019-03-21T13:35:13.446Z,21.44
2019-03-21T13:37:39.511Z,23.09
2019-03-21T13:40:05.851Z,21.93
2019-03-21T13:42:31.947Z,22.32
2019-03-21T13:44:57.949Z,22.67
2019-03-21T13:47:23.998Z,21.84
2019-03-21T13:49:50.328Z,21.92
2019-03-21T13:52:16.245Z,22.01
2019-03-21T13:54:42.398Z,22.12
2019-03-21T13:57:08.504Z,23.39
2019-03-21T13:59:35.191Z,21.78
2019-03-21T14:02:01.274Z,21.84
2019-03-21T14:04:27.700Z,21.19
2019-03-21T14:06:53.856Z,22.32
2019-03-21T14:09:20.455Z,22.25
2019-03-21T14:11:46.668Z,21.42
2019-03-21T14:14:12.783Z,21.75
2019-03-21T14:16:38.754Z,21.96
2019-03-21T14:19:04.874Z,22.17
2019-03-21T14:21:31.127Z,22.06
2019-03-21T14:23:57.298Z,22.96
2019-03-21T14:26:23.557Z,21.62
2019-03-21T14:28:49.540Z,22.39
2019-03-21T14:31:15.594Z,21.54
2019-03-21T14:33:44.581Z,20.99
2019-03-21T14:36:10.896Z,22.57
2019-03-21T14:38:37.467Z,22.06
2019-03-21T14:41:03.346Z,21.45
2019-03-21T14:43:29.442Z,21.76
2019-03-21T14:45:55.606Z,22.48
2019-03-21T14:48:21.991Z,21.62
2019-03-21T14:50:47.862Z,22.17
2019-03-21T14:53:13.956Z,21.62
2019-03-21T14:55:47.346Z,21.87
2019-03-21T14:58:07.744Z,22.18
2019-03-21T15:00:33.785Z,21.66
2019-03-21T15:03:00.050Z,21.80
2019-03-21T15:05:26.154Z,22.15
2019-03-21T15:07:52.013Z,22.75
2019-03-21T15:10:18.624Z,22.88
2019-03-21T15:12:44.623Z,22.68
2019-03-21T15:15:12.548Z,23.71
2019-03-21T15:17:39.063Z,23.06
2019-03-21T15:20:08.266Z,23.33
2019-03-21T15:22:34.452Z,24.31
2019-03-21T15:25:00.500Z,22.95
2019-03-21T15:27:26.510Z,23.60
2019-03-21T15:29:52.747Z,23.64
2019-03-21T15:32:19.381Z,23.80
2019-03-21T15:34:45.330Z,24.08
2019-03-21T15:37:11.630Z,24.09
2019-03-21T15:39:37.955Z,23.86
2019-03-21T15:42:04.338Z,24.41
2019-03-21T15:44:30.609Z,24.48
2019-03-21T15:46:56.625Z,24.62
2019-03-21T15:49:22.571Z,24.89
2019-03-21T15:51:48.570Z,25.84
2019-03-21T15:54:14.694Z,25.54
2019-03-21T15:56:40.564Z,25.31
2019-03-21T15:59:06.689Z,25.33
2019-03-21T16:01:32.780Z,26.14
2019-03-21T16:03:59.103Z,26.35
2019-03-21T16:06:25.132Z,26.08
2019-03-21T16:08:51.224Z,26.39
2019-03-21T16:11:17.040Z,26.28
2019-03-21T16:13:43.148Z,26.31
2019-03-21T16:16:09.330Z,26.86
2019-03-21T16:18:35.395Z,26.56
2019-03-21T16:21:01.406Z,26.35
2019-03-21T16:23:27.220Z,26.48
2019-03-21T16:25:53.347Z,26.22
2019-03-21T16:28:20.300Z,26.16
2019-03-21T16:30:46.709Z,26.52
2019-03-21T16:33:13.002Z,26.25
2019-03-21T16:35:39.449Z,27.54
2019-03-21T16:38:05.252Z,26.87
2019-03-21T16:40:31.426Z,26.85
2019-03-21T16:42:57.664Z,27.30
2019-03-21T16:45:23.976Z,27.09
2019-03-21T16:47:49.994Z,27.11
2019-03-21T16:50:16.185Z,27.54
2019-03-21T16:52:41.954Z,27.66
2019-03-21T16:55:12.454Z,27.64
2019-03-21T16:57:38.600Z,28.24
2019-03-21T17:00:07.762Z,28.33
2019-03-21T17:02:34.016Z,28.13
2019-03-21T17:05:00.551Z,28.68
2019-03-21T17:07:26.814Z,29.31
2019-03-21T17:09:53.095Z,28.94
2019-03-21T17:12:18.935Z,30.01
2019-03-21T17:14:44.986Z,31.38
2019-03-21T17:17:10.857Z,29.65
2019-03-21T17:19:36.877Z,30.07
2019-03-21T17:22:03.291Z,28.75
2019-03-21T17:24:29.917Z,28.80
2019-03-21T17:26:56.110Z,29.70
2019-03-21T17:29:21.928Z,29.01
2019-03-21T17:31:48.041Z,30.16
2019-03-21T17:34:14.390Z,29.54
2019-03-21T17:36:40.356Z,31.29
2019-03-21T17:39:08.102Z,29.90
2019-03-21T17:41:34.162Z,32.28
2019-03-21T17:44:00.060Z,30.37
2019-03-21T17:46:26.140Z,32.55
2019-03-21T17:48:52.105Z,33.13
2019-03-21T17:51:18.212Z,32.91
2019-03-21T17:53:44.286Z,32.57
2019-03-21T17:56:10.383Z,33.94
2019-03-21T17:58:36.411Z,33.82
2019-03-21T18:01:02.637Z,34.00
2019-03-21T18:03:29.160Z,34.16
2019-03-21T18:05:55.430Z,34.00
2019-03-21T18:08:21.590Z,34.63
2019-03-21T18:10:47.990Z,33.96
2019-03-21T18:13:14.010Z,36.30
2019-03-21T18:15:40.090Z,33.00
2019-03-21T18:18:06.357Z,36.40
2019-03-21T18:20:32.402Z,35.73
2019-03-21T18:22:58.972Z,34.86
2019-03-21T18:25:25.096Z,35.96
2019-03-21T18:27:51.354Z,36.54
2019-03-21T18:30:17.602Z,36.45
2019-03-21T18:32:43.864Z,33.44
2019-03-21T18:35:11.353Z,33.84
2019-03-21T18:37:37.478Z,34.09
2019-03-21T18:40:05.108Z,34.74
2019-03-21T18:42:31.183Z,34.34
2019-03-21T18:44:57.493Z,35.40
2019-03-21T18:47:23.698Z,34.22
2019-03-21T18:49:49.738Z,34.26
2019-03-21T18:52:15.675Z,34.65
2019-03-21T18:54:41.793Z,35.29
2019-03-21T18:57:08.150Z,35.41
2019-03-21T18:59:34.187Z,35.48
2019-03-21T19:02:00.304Z,35.68
2019-03-21T19:04:26.314Z,35.51
2019-03-21T19:06:52.458Z,35.73
2019-03-21T19:09:18.592Z,36.20
2019-03-21T19:11:44.638Z,36.15
2019-03-21T19:14:10.796Z,37.88
2019-03-21T19:16:36.981Z,36.79
2019-03-21T19:19:03.425Z,38.36
2019-03-21T19:21:29.769Z,38.52
2019-03-21T19:23:55.927Z,37.15
2019-03-21T19:26:21.888Z,37.53
2019-03-21T19:28:47.910Z,37.53
2019-03-21T19:31:13.717Z,38.99
2019-03-21T19:33:40.035Z,38.76
2019-03-21T19:36:06.169Z,38.40
2019-03-21T19:38:32.227Z,38.04
2019-03-21T19:40:58.292Z,38.27
2019-03-21T19:43:24.336Z,38.61
2019-03-21T19:45:50.410Z,38.49
2019-03-21T19:48:16.374Z,38.72
2019-03-21T19:50:42.456Z,39.49
2019-03-21T19:53:08.660Z,39.12
2019-03-21T19:55:34.943Z,41.22
2019-03-21T19:58:01.372Z,40.64
2019-03-21T20:00:27.409Z,41.60
2019-03-21T20:02:53.613Z,40.85
2019-03-21T20:05:19.793Z,40.97
2019-03-21T20:07:46.180Z,41.27
2019-03-21T20:10:14.972Z,41.73
2019-03-21T20:12:41.129Z,40.64
2019-03-21T20:15:12.778Z,40.94
2019-03-21T20:17:38.629Z,42.65
2019-03-21T20:20:08.217Z,41.87
2019-03-21T20:22:34.721Z,42.25
2019-03-21T20:25:00.944Z,42.24
2019-03-21T20:27:27.387Z,42.86
2019-03-21T20:29:53.630Z,41.52
2019-03-21T20:32:20.736Z,42.01
2019-03-21T20:34:47.373Z,42.54
2019-03-21T20:37:13.442Z,45.23
2019-03-21T20:39:39.457Z,44.49
2019-03-21T20:42:05.952Z,44.99
2019-03-21T20:44:31.892Z,45.17
2019-03-21T20:46:57.981Z,44.38
2019-03-21T20:49:24.363Z,43.10
2019-03-21T20:51:50.403Z,43.39
2019-03-21T20:54:16.566Z,42.67
2019-03-21T20:56:42.882Z,43.14
2019-03-21T20:59:08.960Z,44.23
2019-03-21T21:01:35.159Z,45.14
2019-03-21T21:04:01.125Z,43.87
2019-03-21T21:06:27.599Z,43.76
2019-03-21T21:08:53.601Z,45.39
2019-03-21T21:11:19.651Z,43.66
2019-03-21T21:13:45.677Z,44.22
2019-03-21T21:16:11.827Z,44.38
2019-03-21T21:18:37.880Z,43.51
2019-03-21T21:21:04.285Z,43.59
2019-03-21T21:23:30.374Z,43.67
2019-03-21T21:26:05.008Z,43.54
2019-03-21T21:28:24.091Z,43.38
2019-03-21T21:30:50.530Z,43.78
2019-03-21T21:33:16.550Z,44.83
2019-03-21T21:35:42.737Z,44.36
2019-03-21T21:38:08.803Z,44.51
2019-03-21T21:40:34.999Z,44.30
2019-03-21T21:43:00.883Z,44.21
2019-03-21T21:45:26.945Z,44.30
2019-03-21T21:47:53.099Z,44.75
2019-03-21T21:50:19.437Z,44.70
2019-03-21T21:52:45.374Z,45.72
2019-03-21T21:55:12.607Z,46.96
2019-03-21T21:57:38.597Z,46.41
2019-03-21T22:00:07.638Z,44.96
2019-03-21T22:02:33.767Z,46.08
2019-03-21T22:05:00.543Z,44.99
2019-03-21T22:07:27.042Z,44.96
2019-03-21T22:09:52.935Z,44.93
2019-03-21T22:12:19.297Z,46.08
2019-03-21T22:14:45.312Z,45.62
2019-03-21T22:17:11.340Z,45.33
2019-03-21T22:19:37.483Z,45.22
2019-03-21T22:22:03.477Z,45.56
2019-03-21T22:24:29.401Z,45.63
2019-03-21T22:26:55.741Z,45.65
2019-03-21T22:29:21.960Z,46.04
2019-03-21T22:31:47.763Z,45.66
2019-03-21T22:34:13.817Z,45.76
2019-03-21T22:36:48.889Z,45.95
2019-03-21T22:39:07.989Z,45.74
2019-03-21T22:41:34.141Z,45.82
2019-03-21T22:44:00.234Z,46.15
2019-03-21T22:46:26.365Z,46.25
2019-03-21T22:48:52.423Z,46.14
2019-03-21T22:51:18.618Z,45.96
2019-03-21T22:53:44.513Z,46.61
2019-03-21T22:56:10.599Z,46.38
2019-03-21T22:58:36.695Z,46.10
2019-03-21T23:01:03.742Z,45.86
2019-03-21T23:03:30.066Z,45.86
2019-03-21T23:05:56.171Z,46.10
2019-03-21T23:08:22.227Z,45.64
2019-03-21T23:10:48.658Z,45.63
2019-03-21T23:13:14.571Z,47.61
2019-03-21T23:15:40.734Z,45.75
2019-03-21T23:18:06.721Z,46.00
2019-03-21T23:20:33.079Z,46.19
2019-03-21T23:22:59.366Z,47.26
2019-03-21T23:25:25.284Z,47.53
2019-03-21T23:27:51.415Z,48.45
2019-03-21T23:30:18.392Z,47.79
2019-03-21T23:32:44.650Z,46.80
2019-03-21T23:35:10.870Z,46.41
2019-03-21T23:37:37.152Z,46.50
2019-03-21T23:40:08.788Z,47.30
2019-03-21T23:42:34.981Z,48.84
2019-03-21T23:45:00.763Z,48.36
2019-03-21T23:47:26.821Z,48.24
2019-03-21T23:49:52.635Z,49.14
2019-03-21T23:52:18.708Z,48.77
2019-03-21T23:54:44.868Z,48.12
2019-03-21T23:57:10.955Z,47.50
2019-03-21T23:59:37.023Z,47.93
